sensor_id;sensor_type;location;lat;lon;timestamp;P1;durP1;ratioP1;P2;durP2;ratioP2
1625;SDS011;806;48.770;9.156;2022-09-17T00:01:35;0.50;;;0.20;;
1625;SDS011;806;48.770;9.156;2022-09-17T00:04:02;0.30;;;0.20;;
1625;SDS011;806;48.770;9.156;2022-09-17T00:06:31;0.93;;;0.20;;
1625;SDS011;806;48.770;9.156;2022-09-17T00:08:59;0.40;;;0.20;;
1625;SDS011;806;48.770;9.156;2022-09-17T00:11:27;0.40;;;0.20;;
1625;SDS011;806;48.770;9.156;2022-09-17T00:13:56;0.30;;;0.20;;
1625;SDS011;806;48.770;9.156;2022-09-17T00:16:25;0.30;;;0.20;;
1625;SDS011;806;48.770;9.156;2022-09-17T00:18:55;0.40;;;0.30;;
1625;SDS011;806;48.770;9.156;2022-09-17T00:21:23;1.07;;;0.20;;
1625;SDS011;806;48.770;9.156;2022-09-17T00:23:52;0.50;;;0.20;;
1625;SDS011;806;48.770;9.156;2022-09-17T00:26:20;0.40;;;0.10;;
1625;SDS011;806;48.770;9.156;2022-09-17T00:28:48;0.47;;;0.20;;
1625;SDS011;806;48.770;9.156;2022-09-17T00:31:15;0.40;;;0.20;;
1625;SDS011;806;48.770;9.156;2022-09-17T00:33:42;1.70;;;0.30;;
1625;SDS011;806;48.770;9.156;2022-09-17T00:36:10;0.30;;;0.20;;
1625;SDS011;806;48.770;9.156;2022-09-17T00:38:37;0.40;;;0.20;;
1625;SDS011;806;48.770;9.156;2022-09-17T00:41:05;0.40;;;0.20;;
1625;SDS011;806;48.770;9.156;2022-09-17T00:43:37;0.30;;;0.17;;
1625;SDS011;806;48.770;9.156;2022-09-17T00:46:10;0.40;;;0.20;;
1625;SDS011;806;48.770;9.156;2022-09-17T00:48:46;0.40;;;0.20;;
1625;SDS011;806;48.770;9.156;2022-09-17T00:51:14;0.50;;;0.17;;
1625;SDS011;806;48.770;9.156;2022-09-17T00:53:45;0.57;;;0.20;;
1625;SDS011;806;48.770;9.156;2022-09-17T00:56:13;0.70;;;0.30;;
1625;SDS011;806;48.770;9.156;2022-09-17T00:58:44;0.40;;;0.20;;
1625;SDS011;806;48.770;9.156;2022-09-17T01:01:12;0.40;;;0.20;;
1625;SDS011;806;48.770;9.156;2022-09-17T01:03:39;0.57;;;0.20;;
1625;SDS011;806;48.770;9.156;2022-09-17T01:06:08;0.50;;;0.20;;
1625;SDS011;806;48.770;9.156;2022-09-17T01:08:46;0.37;;;0.20;;
1625;SDS011;806;48.770;9.156;2022-09-17T01:11:29;0.40;;;0.20;;
1625;SDS011;806;48.770;9.156;2022-09-17T01:14:29;0.30;;;0.20;;
1625;SDS011;806;48.770;9.156;2022-09-17T01:17:14;0.37;;;0.20;;
1625;SDS011;806;48.770;9.156;2022-09-17T01:20:00;0.40;;;0.20;;
1625;SDS011;806;48.770;9.156;2022-09-17T01:22:47;0.43;;;0.20;;
1625;SDS011;806;48.770;9.156;2022-09-17T01:25:27;1.63;;;0.20;;
1625;SDS011;806;48.770;9.156;2022-09-17T01:34:01;0.50;;;0.20;;
1625;SDS011;806;48.770;9.156;2022-09-17T01:36:41;0.30;;;0.20;;
1625;SDS011;806;48.770;9.156;2022-09-17T01:39:16;0.50;;;0.20;;
1625;SDS011;806;48.770;9.156;2022-09-17T01:41:55;0.30;;;0.20;;
1625;SDS011;806;48.770;9.156;2022-09-17T01:44:27;0.40;;;0.20;;
1625;SDS011;806;48.770;9.156;2022-09-17T01:47:02;0.53;;;0.20;;
1625;SDS011;806;48.770;9.156;2022-09-17T01:49:34;0.60;;;0.20;;
1625;SDS011;806;48.770;9.156;2022-09-17T01:52:03;0.40;;;0.20;;
1625;SDS011;806;48.770;9.156;2022-09-17T01:54:32;0.73;;;0.20;;
1625;SDS011;806;48.770;9.156;2022-09-17T01:57:04;0.40;;;0.20;;
1625;SDS011;806;48.770;9.156;2022-09-17T01:59:35;0.50;;;0.20;;
1625;SDS011;806;48.770;9.156;2022-09-17T02:02:09;0.40;;;0.20;;
1625;SDS011;806;48.770;9.156;2022-09-17T02:04:41;2.20;;;0.30;;
1625;SDS011;806;48.770;9.156;2022-09-17T02:07:13;0.50;;;0.20;;
1625;SDS011;806;48.770;9.156;2022-09-17T02:09:45;0.57;;;0.30;;
1625;SDS011;806;48.770;9.156;2022-09-17T02:12:17;0.40;;;0.23;;
1625;SDS011;806;48.770;9.156;2022-09-17T02:14:50;0.63;;;0.30;;
1625;SDS011;806;48.770;9.156;2022-09-17T02:17:27;0.50;;;0.20;;
1625;SDS011;806;48.770;9.156;2022-09-17T02:19:57;0.47;;;0.30;;
1625;SDS011;806;48.770;9.156;2022-09-17T02:22:27;0.40;;;0.20;;
1625;SDS011;806;48.770;9.156;2022-09-17T02:25:01;0.40;;;0.20;;
1625;SDS011;806;48.770;9.156;2022-09-17T02:27:39;0.40;;;0.20;;
1625;SDS011;806;48.770;9.156;2022-09-17T02:30:13;0.50;;;0.30;;
1625;SDS011;806;48.770;9.156;2022-09-17T02:32:41;2.40;;;0.30;;
1625;SDS011;806;48.770;9.156;2022-09-17T02:35:08;0.83;;;0.30;;
1625;SDS011;806;48.770;9.156;2022-09-17T02:37:38;2.20;;;0.30;;
1625;SDS011;806;48.770;9.156;2022-09-17T02:40:05;3.40;;;0.30;;
1625;SDS011;806;48.770;9.156;2022-09-17T02:42:36;2.13;;;0.30;;
1625;SDS011;806;48.770;9.156;2022-09-17T02:45:17;2.67;;;0.30;;
1625;SDS011;806;48.770;9.156;2022-09-17T02:48:04;0.50;;;0.20;;
1625;SDS011;806;48.770;9.156;2022-09-17T02:50:45;0.67;;;0.30;;
1625;SDS011;806;48.770;9.156;2022-09-17T02:53:33;0.63;;;0.40;;
1625;SDS011;806;48.770;9.156;2022-09-17T02:56:09;0.67;;;0.30;;
1625;SDS011;806;48.770;9.156;2022-09-17T02:58:43;0.40;;;0.20;;
1625;SDS011;806;48.770;9.156;2022-09-17T03:01:16;1.10;;;0.30;;
1625;SDS011;806;48.770;9.156;2022-09-17T03:03:49;1.27;;;0.30;;
1625;SDS011;806;48.770;9.156;2022-09-17T03:06:18;0.43;;;0.20;;
1625;SDS011;806;48.770;9.156;2022-09-17T03:08:45;0.40;;;0.30;;
1625;SDS011;806;48.770;9.156;2022-09-17T03:11:12;0.50;;;0.23;;
1625;SDS011;806;48.770;9.156;2022-09-17T03:13:39;0.43;;;0.20;;
1625;SDS011;806;48.770;9.156;2022-09-17T03:16:06;0.40;;;0.30;;
1625;SDS011;806;48.770;9.156;2022-09-17T03:18:33;0.47;;;0.20;;
1625;SDS011;806;48.770;9.156;2022-09-17T03:21:02;0.40;;;0.20;;
1625;SDS011;806;48.770;9.156;2022-09-17T03:23:29;0.77;;;0.30;;
1625;SDS011;806;48.770;9.156;2022-09-17T03:25:56;1.00;;;0.30;;
1625;SDS011;806;48.770;9.156;2022-09-17T03:28:23;0.63;;;0.30;;
1625;SDS011;806;48.770;9.156;2022-09-17T03:30:50;0.60;;;0.30;;
1625;SDS011;806;48.770;9.156;2022-09-17T03:33:18;0.40;;;0.20;;
1625;SDS011;806;48.770;9.156;2022-09-17T03:35:45;1.03;;;0.30;;
1625;SDS011;806;48.770;9.156;2022-09-17T03:38:13;2.70;;;0.30;;
1625;SDS011;806;48.770;9.156;2022-09-17T03:40:41;0.77;;;0.20;;
1625;SDS011;806;48.770;9.156;2022-09-17T03:43:08;0.47;;;0.20;;
1625;SDS011;806;48.770;9.156;2022-09-17T03:45:35;0.50;;;0.23;;
1625;SDS011;806;48.770;9.156;2022-09-17T03:48:02;0.70;;;0.40;;
1625;SDS011;806;48.770;9.156;2022-09-17T03:50:29;0.40;;;0.20;;
1625;SDS011;806;48.770;9.156;2022-09-17T03:52:56;0.83;;;0.20;;
1625;SDS011;806;48.770;9.156;2022-09-17T03:55:24;2.87;;;0.30;;
1625;SDS011;806;48.770;9.156;2022-09-17T03:57:51;0.47;;;0.20;;
1625;SDS011;806;48.770;9.156;2022-09-17T04:00:20;0.40;;;0.20;;
1625;SDS011;806;48.770;9.156;2022-09-17T04:02:46;0.40;;;0.20;;
1625;SDS011;806;48.770;9.156;2022-09-17T04:05:13;0.70;;;0.30;;
1625;SDS011;806;48.770;9.156;2022-09-17T04:07:40;0.40;;;0.20;;
1625;SDS011;806;48.770;9.156;2022-09-17T04:10:07;0.47;;;0.20;;
1625;SDS011;806;48.770;9.156;2022-09-17T04:12:36;0.40;;;0.20;;
1625;SDS011;806;48.770;9.156;2022-09-17T04:15:03;0.47;;;0.20;;
1625;SDS011;806;48.770;9.156;2022-09-17T04:17:30;1.23;;;0.30;;
1625;SDS011;806;48.770;9.156;2022-09-17T04:19:57;0.93;;;0.30;;
1625;SDS011;806;48.770;9.156;2022-09-17T04:22:24;2.50;;;0.27;;
1625;SDS011;806;48.770;9.156;2022-09-17T04:24:51;0.30;;;0.20;;
1625;SDS011;806;48.770;9.156;2022-09-17T04:27:18;0.30;;;0.20;;
1625;SDS011;806;48.770;9.156;2022-09-17T04:29:46;0.30;;;0.20;;
1625;SDS011;806;48.770;9.156;2022-09-17T04:32:13;0.73;;;0.30;;
1625;SDS011;806;48.770;9.156;2022-09-17T04:34:40;0.50;;;0.20;;
1625;SDS011;806;48.770;9.156;2022-09-17T04:37:07;0.50;;;0.20;;
1625;SDS011;806;48.770;9.156;2022-09-17T04:39:33;0.40;;;0.30;;
1625;SDS011;806;48.770;9.156;2022-09-17T04:42:02;0.40;;;0.20;;
1625;SDS011;806;48.770;9.156;2022-09-17T04:44:29;0.50;;;0.30;;
1625;SDS011;806;48.770;9.156;2022-09-17T04:46:57;0.40;;;0.20;;
1625;SDS011;806;48.770;9.156;2022-09-17T04:49:24;2.67;;;0.30;;
1625;SDS011;806;48.770;9.156;2022-09-17T04:51:53;0.50;;;0.30;;
1625;SDS011;806;48.770;9.156;2022-09-17T04:54:20;1.10;;;0.27;;
1625;SDS011;806;48.770;9.156;2022-09-17T04:56:48;1.43;;;0.30;;
1625;SDS011;806;48.770;9.156;2022-09-17T04:59:15;0.40;;;0.30;;
1625;SDS011;806;48.770;9.156;2022-09-17T05:01:42;1.10;;;0.30;;
1625;SDS011;806;48.770;9.156;2022-09-17T05:04:10;9.83;;;0.30;;
1625;SDS011;806;48.770;9.156;2022-09-17T05:06:37;0.80;;;0.40;;
1625;SDS011;806;48.770;9.156;2022-09-17T05:09:04;1.70;;;0.30;;
1625;SDS011;806;48.770;9.156;2022-09-17T05:11:31;1.63;;;0.30;;
1625;SDS011;806;48.770;9.156;2022-09-17T05:13:57;0.97;;;0.30;;
1625;SDS011;806;48.770;9.156;2022-09-17T05:16:24;1.07;;;0.20;;
1625;SDS011;806;48.770;9.156;2022-09-17T05:18:51;0.80;;;0.30;;
1625;SDS011;806;48.770;9.156;2022-09-17T05:21:19;0.90;;;0.30;;
1625;SDS011;806;48.770;9.156;2022-09-17T05:23:46;2.93;;;0.40;;
1625;SDS011;806;48.770;9.156;2022-09-17T05:26:13;0.97;;;0.30;;
1625;SDS011;806;48.770;9.156;2022-09-17T05:28:40;0.40;;;0.23;;
1625;SDS011;806;48.770;9.156;2022-09-17T05:31:07;1.90;;;0.30;;
1625;SDS011;806;48.770;9.156;2022-09-17T05:33:34;0.50;;;0.37;;
1625;SDS011;806;48.770;9.156;2022-09-17T05:36:01;0.60;;;0.40;;
1625;SDS011;806;48.770;9.156;2022-09-17T05:38:29;0.83;;;0.30;;
1625;SDS011;806;48.770;9.156;2022-09-17T05:40:56;1.83;;;0.30;;
1625;SDS011;806;48.770;9.156;2022-09-17T05:43:23;0.90;;;0.40;;
1625;SDS011;806;48.770;9.156;2022-09-17T05:45:50;0.40;;;0.30;;
1625;SDS011;806;48.770;9.156;2022-09-17T05:48:18;0.90;;;0.30;;
1625;SDS011;806;48.770;9.156;2022-09-17T05:50:45;0.60;;;0.33;;
1625;SDS011;806;48.770;9.156;2022-09-17T05:53:12;0.60;;;0.30;;
1625;SDS011;806;48.770;9.156;2022-09-17T05:55:40;0.87;;;0.30;;
1625;SDS011;806;48.770;9.156;2022-09-17T05:58:07;0.50;;;0.30;;
1625;SDS011;806;48.770;9.156;2022-09-17T06:00:36;0.87;;;0.40;;
1625;SDS011;806;48.770;9.156;2022-09-17T06:03:03;0.97;;;0.30;;
1625;SDS011;806;48.770;9.156;2022-09-17T06:05:29;0.93;;;0.30;;
1625;SDS011;806;48.770;9.156;2022-09-17T06:07:56;1.10;;;0.30;;
1625;SDS011;806;48.770;9.156;2022-09-17T06:10:23;0.40;;;0.30;;
1625;SDS011;806;48.770;9.156;2022-09-17T06:12:55;0.80;;;0.40;;
1625;SDS011;806;48.770;9.156;2022-09-17T06:15:22;0.57;;;0.40;;
1625;SDS011;806;48.770;9.156;2022-09-17T06:17:50;2.23;;;0.40;;
1625;SDS011;806;48.770;9.156;2022-09-17T06:20:16;0.60;;;0.30;;
1625;SDS011;806;48.770;9.156;2022-09-17T06:22:43;1.30;;;0.40;;
1625;SDS011;806;48.770;9.156;2022-09-17T06:25:11;0.63;;;0.37;;
1625;SDS011;806;48.770;9.156;2022-09-17T06:27:38;1.20;;;0.30;;
1625;SDS011;806;48.770;9.156;2022-09-17T06:30:07;2.23;;;0.50;;
1625;SDS011;806;48.770;9.156;2022-09-17T06:32:37;1.10;;;0.30;;
1625;SDS011;806;48.770;9.156;2022-09-17T06:35:04;0.60;;;0.30;;
1625;SDS011;806;48.770;9.156;2022-09-17T06:37:32;1.50;;;0.30;;
1625;SDS011;806;48.770;9.156;2022-09-17T06:40:00;0.50;;;0.30;;
1625;SDS011;806;48.770;9.156;2022-09-17T06:42:28;0.50;;;0.30;;
1625;SDS011;806;48.770;9.156;2022-09-17T06:44:55;2.47;;;0.50;;
1625;SDS011;806;48.770;9.156;2022-09-17T06:47:24;0.70;;;0.40;;
1625;SDS011;806;48.770;9.156;2022-09-17T06:49:51;2.37;;;0.40;;
1625;SDS011;806;48.770;9.156;2022-09-17T06:52:18;0.60;;;0.40;;
1625;SDS011;806;48.770;9.156;2022-09-17T06:54:45;0.80;;;0.30;;
1625;SDS011;806;48.770;9.156;2022-09-17T06:57:12;0.70;;;0.33;;
1625;SDS011;806;48.770;9.156;2022-09-17T06:59:39;0.57;;;0.30;;
1625;SDS011;806;48.770;9.156;2022-09-17T07:02:08;1.07;;;0.30;;
1625;SDS011;806;48.770;9.156;2022-09-17T07:04:36;0.60;;;0.37;;
1625;SDS011;806;48.770;9.156;2022-09-17T07:07:03;0.60;;;0.30;;
1625;SDS011;806;48.770;9.156;2022-09-17T07:09:30;2.00;;;0.40;;
1625;SDS011;806;48.770;9.156;2022-09-17T07:11:57;0.50;;;0.30;;
1625;SDS011;806;48.770;9.156;2022-09-17T07:14:24;1.10;;;0.30;;
1625;SDS011;806;48.770;9.156;2022-09-17T07:16:51;0.40;;;0.30;;
1625;SDS011;806;48.770;9.156;2022-09-17T07:19:18;2.60;;;0.40;;
1625;SDS011;806;48.770;9.156;2022-09-17T07:21:48;0.80;;;0.40;;
1625;SDS011;806;48.770;9.156;2022-09-17T07:24:14;0.83;;;0.30;;
1625;SDS011;806;48.770;9.156;2022-09-17T07:26:43;0.83;;;0.40;;
1625;SDS011;806;48.770;9.156;2022-09-17T07:29:19;1.73;;;0.43;;
1625;SDS011;806;48.770;9.156;2022-09-17T07:31:47;1.40;;;0.30;;
1625;SDS011;806;48.770;9.156;2022-09-17T07:34:14;1.47;;;0.40;;
1625;SDS011;806;48.770;9.156;2022-09-17T07:36:41;3.77;;;0.40;;
1625;SDS011;806;48.770;9.156;2022-09-17T07:39:10;1.07;;;0.40;;
1625;SDS011;806;48.770;9.156;2022-09-17T07:41:37;1.80;;;0.33;;
1625;SDS011;806;48.770;9.156;2022-09-17T07:44:05;1.23;;;0.40;;
1625;SDS011;806;48.770;9.156;2022-09-17T07:46:33;1.60;;;0.30;;
1625;SDS011;806;48.770;9.156;2022-09-17T07:49:00;0.70;;;0.33;;
1625;SDS011;806;48.770;9.156;2022-09-17T07:51:27;0.73;;;0.40;;
1625;SDS011;806;48.770;9.156;2022-09-17T07:53:55;1.37;;;0.40;;
1625;SDS011;806;48.770;9.156;2022-09-17T07:56:24;0.53;;;0.40;;
1625;SDS011;806;48.770;9.156;2022-09-17T07:58:52;0.73;;;0.40;;
1625;SDS011;806;48.770;9.156;2022-09-17T08:01:20;0.60;;;0.30;;
1625;SDS011;806;48.770;9.156;2022-09-17T08:03:47;0.60;;;0.37;;
1625;SDS011;806;48.770;9.156;2022-09-17T08:06:16;1.30;;;0.30;;
1625;SDS011;806;48.770;9.156;2022-09-17T08:08:44;1.00;;;0.40;;
1625;SDS011;806;48.770;9.156;2022-09-17T08:11:12;0.67;;;0.30;;
1625;SDS011;806;48.770;9.156;2022-09-17T08:13:42;0.97;;;0.30;;
1625;SDS011;806;48.770;9.156;2022-09-17T08:16:13;0.43;;;0.30;;
1625;SDS011;806;48.770;9.156;2022-09-17T08:18:40;0.70;;;0.30;;
1625;SDS011;806;48.770;9.156;2022-09-17T08:21:08;1.17;;;0.33;;
1625;SDS011;806;48.770;9.156;2022-09-17T08:23:36;0.60;;;0.40;;
1625;SDS011;806;48.770;9.156;2022-09-17T08:26:05;1.43;;;0.37;;
1625;SDS011;806;48.770;9.156;2022-09-17T08:28:33;2.17;;;0.50;;
1625;SDS011;806;48.770;9.156;2022-09-17T08:31:04;0.67;;;0.30;;
1625;SDS011;806;48.770;9.156;2022-09-17T08:33:33;1.93;;;0.50;;
1625;SDS011;806;48.770;9.156;2022-09-17T08:36:01;1.57;;;0.40;;
1625;SDS011;806;48.770;9.156;2022-09-17T08:38:29;0.80;;;0.37;;
1625;SDS011;806;48.770;9.156;2022-09-17T08:41:00;2.60;;;0.40;;
1625;SDS011;806;48.770;9.156;2022-09-17T08:43:38;0.80;;;0.40;;
1625;SDS011;806;48.770;9.156;2022-09-17T08:46:11;1.93;;;0.40;;
1625;SDS011;806;48.770;9.156;2022-09-17T08:48:40;0.70;;;0.43;;
1625;SDS011;806;48.770;9.156;2022-09-17T08:51:12;1.03;;;0.30;;
1625;SDS011;806;48.770;9.156;2022-09-17T08:53:52;2.50;;;0.30;;
1625;SDS011;806;48.770;9.156;2022-09-17T08:56:26;1.33;;;0.40;;
1625;SDS011;806;48.770;9.156;2022-09-17T08:59:09;0.60;;;0.40;;
1625;SDS011;806;48.770;9.156;2022-09-17T09:01:50;1.60;;;0.50;;
1625;SDS011;806;48.770;9.156;2022-09-17T09:04:33;4.53;;;0.50;;
1625;SDS011;806;48.770;9.156;2022-09-17T09:07:11;1.17;;;0.40;;
1625;SDS011;806;48.770;9.156;2022-09-17T09:09:43;1.90;;;0.40;;
1625;SDS011;806;48.770;9.156;2022-09-17T09:12:15;2.00;;;0.60;;
1625;SDS011;806;48.770;9.156;2022-09-17T09:14:51;2.53;;;0.50;;
1625;SDS011;806;48.770;9.156;2022-09-17T09:17:27;2.73;;;0.50;;
1625;SDS011;806;48.770;9.156;2022-09-17T09:20:00;2.80;;;0.50;;
1625;SDS011;806;48.770;9.156;2022-09-17T09:22:32;1.27;;;0.40;;
1625;SDS011;806;48.770;9.156;2022-09-17T09:25:17;0.70;;;0.43;;
1625;SDS011;806;48.770;9.156;2022-09-17T09:30:42;2.03;;;0.40;;
1625;SDS011;806;48.770;9.156;2022-09-17T09:33:25;1.27;;;0.40;;
1625;SDS011;806;48.770;9.156;2022-09-17T09:35:54;1.90;;;0.40;;
1625;SDS011;806;48.770;9.156;2022-09-17T09:38:23;3.70;;;0.50;;
1625;SDS011;806;48.770;9.156;2022-09-17T09:40:57;2.30;;;0.40;;
1625;SDS011;806;48.770;9.156;2022-09-17T09:43:33;1.00;;;0.37;;
1625;SDS011;806;48.770;9.156;2022-09-17T09:46:14;1.93;;;0.40;;
1625;SDS011;806;48.770;9.156;2022-09-17T09:49:03;1.07;;;0.40;;
1625;SDS011;806;48.770;9.156;2022-09-17T09:51:39;0.77;;;0.40;;
1625;SDS011;806;48.770;9.156;2022-09-17T09:54:27;1.00;;;0.40;;
1625;SDS011;806;48.770;9.156;2022-09-17T09:57:04;0.93;;;0.40;;
1625;SDS011;806;48.770;9.156;2022-09-17T09:59:35;0.83;;;0.50;;
1625;SDS011;806;48.770;9.156;2022-09-17T10:02:05;0.80;;;0.40;;
1625;SDS011;806;48.770;9.156;2022-09-17T10:04:33;1.60;;;0.40;;
1625;SDS011;806;48.770;9.156;2022-09-17T10:07:04;1.00;;;0.40;;
1625;SDS011;806;48.770;9.156;2022-09-17T10:09:34;1.30;;;0.60;;
1625;SDS011;806;48.770;9.156;2022-09-17T10:12:14;1.37;;;0.50;;
1625;SDS011;806;48.770;9.156;2022-09-17T10:14:42;1.43;;;0.47;;
1625;SDS011;806;48.770;9.156;2022-09-17T10:17:20;1.80;;;0.50;;
1625;SDS011;806;48.770;9.156;2022-09-17T10:22:43;0.73;;;0.40;;
1625;SDS011;806;48.770;9.156;2022-09-17T10:25:19;0.57;;;0.30;;
1625;SDS011;806;48.770;9.156;2022-09-17T10:27:53;0.60;;;0.30;;
1625;SDS011;806;48.770;9.156;2022-09-17T10:30:21;0.50;;;0.40;;
1625;SDS011;806;48.770;9.156;2022-09-17T10:35:54;0.70;;;0.30;;
1625;SDS011;806;48.770;9.156;2022-09-17T10:38:30;1.00;;;0.33;;
1625;SDS011;806;48.770;9.156;2022-09-17T10:41:09;1.07;;;0.53;;
1625;SDS011;806;48.770;9.156;2022-09-17T10:43:41;0.70;;;0.40;;
1625;SDS011;806;48.770;9.156;2022-09-17T10:46:09;0.83;;;0.40;;
1625;SDS011;806;48.770;9.156;2022-09-17T10:48:41;0.67;;;0.30;;
1625;SDS011;806;48.770;9.156;2022-09-17T10:51:19;0.60;;;0.30;;
1625;SDS011;806;48.770;9.156;2022-09-17T10:54:00;0.53;;;0.30;;
1625;SDS011;806;48.770;9.156;2022-09-17T10:56:33;1.03;;;0.30;;
1625;SDS011;806;48.770;9.156;2022-09-17T10:59:14;0.50;;;0.30;;
1625;SDS011;806;48.770;9.156;2022-09-17T11:02:09;1.53;;;0.40;;
1625;SDS011;806;48.770;9.156;2022-09-17T11:04:52;0.70;;;0.30;;
1625;SDS011;806;48.770;9.156;2022-09-17T11:07:31;1.90;;;0.37;;
1625;SDS011;806;48.770;9.156;2022-09-17T11:10:02;0.53;;;0.30;;
1625;SDS011;806;48.770;9.156;2022-09-17T11:12:57;1.30;;;0.40;;
1625;SDS011;806;48.770;9.156;2022-09-17T11:15:39;1.03;;;0.30;;
1625;SDS011;806;48.770;9.156;2022-09-17T11:21:06;2.30;;;0.30;;
1625;SDS011;806;48.770;9.156;2022-09-17T11:26:42;0.67;;;0.30;;
1625;SDS011;806;48.770;9.156;2022-09-17T11:29:23;1.17;;;0.40;;
1625;SDS011;806;48.770;9.156;2022-09-17T11:32:02;0.40;;;0.30;;
1625;SDS011;806;48.770;9.156;2022-09-17T11:34:36;0.50;;;0.30;;
1625;SDS011;806;48.770;9.156;2022-09-17T11:37:09;1.47;;;0.30;;
1625;SDS011;806;48.770;9.156;2022-09-17T11:39:42;0.50;;;0.30;;
1625;SDS011;806;48.770;9.156;2022-09-17T11:42:18;0.90;;;0.30;;
1625;SDS011;806;48.770;9.156;2022-09-17T11:44:50;0.80;;;0.30;;
1625;SDS011;806;48.770;9.156;2022-09-17T11:47:24;0.40;;;0.30;;
1625;SDS011;806;48.770;9.156;2022-09-17T11:49:56;0.40;;;0.20;;
1625;SDS011;806;48.770;9.156;2022-09-17T11:52:31;0.60;;;0.30;;
1625;SDS011;806;48.770;9.156;2022-09-17T11:55:06;0.97;;;0.40;;
1625;SDS011;806;48.770;9.156;2022-09-17T11:57:43;1.13;;;0.30;;
1625;SDS011;806;48.770;9.156;2022-09-17T12:00:13;1.00;;;0.30;;
1625;SDS011;806;48.770;9.156;2022-09-17T12:02:44;0.70;;;0.30;;
1625;SDS011;806;48.770;9.156;2022-09-17T12:05:18;0.90;;;0.30;;
1625;SDS011;806;48.770;9.156;2022-09-17T12:07:49;0.50;;;0.30;;
1625;SDS011;806;48.770;9.156;2022-09-17T12:10:31;0.40;;;0.20;;
1625;SDS011;806;48.770;9.156;2022-09-17T12:13:04;0.67;;;0.30;;
1625;SDS011;806;48.770;9.156;2022-09-17T12:15:42;1.80;;;0.30;;
1625;SDS011;806;48.770;9.156;2022-09-17T12:18:18;0.50;;;0.20;;
1625;SDS011;806;48.770;9.156;2022-09-17T12:20:53;0.60;;;0.30;;
1625;SDS011;806;48.770;9.156;2022-09-17T12:23:24;0.60;;;0.20;;
1625;SDS011;806;48.770;9.156;2022-09-17T12:26:00;0.77;;;0.30;;
1625;SDS011;806;48.770;9.156;2022-09-17T12:28:34;0.73;;;0.20;;
1625;SDS011;806;48.770;9.156;2022-09-17T12:31:09;0.60;;;0.20;;
1625;SDS011;806;48.770;9.156;2022-09-17T12:33:42;0.50;;;0.30;;
1625;SDS011;806;48.770;9.156;2022-09-17T12:36:17;1.60;;;0.30;;
1625;SDS011;806;48.770;9.156;2022-09-17T12:38:59;0.50;;;0.20;;
1625;SDS011;806;48.770;9.156;2022-09-17T12:41:39;0.40;;;0.20;;
1625;SDS011;806;48.770;9.156;2022-09-17T12:47:15;0.33;;;0.23;;
1625;SDS011;806;48.770;9.156;2022-09-17T12:50:16;1.53;;;0.30;;
1625;SDS011;806;48.770;9.156;2022-09-17T12:52:52;0.50;;;0.30;;
1625;SDS011;806;48.770;9.156;2022-09-17T12:55:31;0.50;;;0.30;;
1625;SDS011;806;48.770;9.156;2022-09-17T12:58:16;0.40;;;0.20;;
1625;SDS011;806;48.770;9.156;2022-09-17T13:00:58;0.80;;;0.30;;
1625;SDS011;806;48.770;9.156;2022-09-17T13:03:32;0.50;;;0.20;;
1625;SDS011;806;48.770;9.156;2022-09-17T13:12:07;0.40;;;0.20;;
1625;SDS011;806;48.770;9.156;2022-09-17T13:14:53;0.40;;;0.20;;
1625;SDS011;806;48.770;9.156;2022-09-17T13:17:30;0.40;;;0.20;;
1625;SDS011;806;48.770;9.156;2022-09-17T13:20:04;1.03;;;0.20;;
1625;SDS011;806;48.770;9.156;2022-09-17T13:22:44;0.50;;;0.20;;
1625;SDS011;806;48.770;9.156;2022-09-17T13:25:13;0.50;;;0.20;;
1625;SDS011;806;48.770;9.156;2022-09-17T13:27:42;0.40;;;0.20;;
1625;SDS011;806;48.770;9.156;2022-09-17T13:30:11;1.07;;;0.20;;
1625;SDS011;806;48.770;9.156;2022-09-17T13:32:44;0.40;;;0.20;;
1625;SDS011;806;48.770;9.156;2022-09-17T13:38:14;0.50;;;0.20;;
1625;SDS011;806;48.770;9.156;2022-09-17T13:40:43;0.40;;;0.17;;
1625;SDS011;806;48.770;9.156;2022-09-17T13:43:11;0.40;;;0.20;;
1625;SDS011;806;48.770;9.156;2022-09-17T13:48:36;0.70;;;0.20;;
1625;SDS011;806;48.770;9.156;2022-09-17T13:54:15;0.50;;;0.20;;
1625;SDS011;806;48.770;9.156;2022-09-17T13:56:45;1.03;;;0.20;;
1625;SDS011;806;48.770;9.156;2022-09-17T13:59:15;0.40;;;0.20;;
1625;SDS011;806;48.770;9.156;2022-09-17T14:01:58;0.30;;;0.13;;
1625;SDS011;806;48.770;9.156;2022-09-17T14:07:50;0.30;;;0.10;;
1625;SDS011;806;48.770;9.156;2022-09-17T14:10:38;0.67;;;0.30;;
1625;SDS011;806;48.770;9.156;2022-09-17T14:13:24;0.63;;;0.30;;
1625;SDS011;806;48.770;9.156;2022-09-17T14:16:22;1.13;;;0.20;;
1625;SDS011;806;48.770;9.156;2022-09-17T14:19:18;0.60;;;0.30;;
1625;SDS011;806;48.770;9.156;2022-09-17T14:21:57;3.93;;;0.30;;
1625;SDS011;806;48.770;9.156;2022-09-17T14:24:28;0.40;;;0.20;;
1625;SDS011;806;48.770;9.156;2022-09-17T14:27:11;0.50;;;0.27;;
1625;SDS011;806;48.770;9.156;2022-09-17T14:29:48;0.50;;;0.30;;
1625;SDS011;806;48.770;9.156;2022-09-17T14:32:27;1.57;;;0.23;;
1625;SDS011;806;48.770;9.156;2022-09-17T14:35:00;0.40;;;0.20;;
1625;SDS011;806;48.770;9.156;2022-09-17T14:37:37;0.50;;;0.33;;
1625;SDS011;806;48.770;9.156;2022-09-17T14:40:06;0.60;;;0.20;;
1625;SDS011;806;48.770;9.156;2022-09-17T14:42:35;0.40;;;0.20;;
1625;SDS011;806;48.770;9.156;2022-09-17T14:45:04;0.50;;;0.20;;
1625;SDS011;806;48.770;9.156;2022-09-17T14:47:38;0.30;;;0.20;;
1625;SDS011;806;48.770;9.156;2022-09-17T14:50:22;0.50;;;0.20;;
1625;SDS011;806;48.770;9.156;2022-09-17T14:52:51;0.60;;;0.27;;
1625;SDS011;806;48.770;9.156;2022-09-17T14:55:22;0.60;;;0.20;;
1625;SDS011;806;48.770;9.156;2022-09-17T14:57:51;0.73;;;0.30;;
1625;SDS011;806;48.770;9.156;2022-09-17T15:00:20;0.57;;;0.30;;
1625;SDS011;806;48.770;9.156;2022-09-17T15:02:49;0.50;;;0.20;;
1625;SDS011;806;48.770;9.156;2022-09-17T15:05:20;0.37;;;0.20;;
1625;SDS011;806;48.770;9.156;2022-09-17T15:07:51;0.40;;;0.20;;
1625;SDS011;806;48.770;9.156;2022-09-17T15:10:38;0.50;;;0.20;;
1625;SDS011;806;48.770;9.156;2022-09-17T15:13:12;2.13;;;0.30;;
1625;SDS011;806;48.770;9.156;2022-09-17T15:15:48;0.40;;;0.20;;
1625;SDS011;806;48.770;9.156;2022-09-17T15:18:20;0.50;;;0.30;;
1625;SDS011;806;48.770;9.156;2022-09-17T15:20:52;0.97;;;0.40;;
1625;SDS011;806;48.770;9.156;2022-09-17T15:23:22;1.07;;;0.40;;
1625;SDS011;806;48.770;9.156;2022-09-17T15:25:51;0.50;;;0.20;;
1625;SDS011;806;48.770;9.156;2022-09-17T15:28:23;0.53;;;0.27;;
1625;SDS011;806;48.770;9.156;2022-09-17T15:30:53;0.60;;;0.20;;
1625;SDS011;806;48.770;9.156;2022-09-17T15:33:20;0.50;;;0.20;;
1625;SDS011;806;48.770;9.156;2022-09-17T15:36:05;1.77;;;0.30;;
1625;SDS011;806;48.770;9.156;2022-09-17T15:38:39;1.27;;;0.30;;
1625;SDS011;806;48.770;9.156;2022-09-17T15:41:15;0.70;;;0.30;;
1625;SDS011;806;48.770;9.156;2022-09-17T15:43:50;0.40;;;0.20;;
1625;SDS011;806;48.770;9.156;2022-09-17T15:46:21;1.30;;;0.30;;
1625;SDS011;806;48.770;9.156;2022-09-17T15:48:50;1.63;;;0.30;;
1625;SDS011;806;48.770;9.156;2022-09-17T15:51:22;1.17;;;0.30;;
1625;SDS011;806;48.770;9.156;2022-09-17T15:53:52;0.60;;;0.40;;
1625;SDS011;806;48.770;9.156;2022-09-17T15:56:21;1.60;;;0.20;;
1625;SDS011;806;48.770;9.156;2022-09-17T15:58:50;0.93;;;0.40;;
1625;SDS011;806;48.770;9.156;2022-09-17T16:04:20;0.60;;;0.23;;
1625;SDS011;806;48.770;9.156;2022-09-17T16:06:54;0.93;;;0.23;;
1625;SDS011;806;48.770;9.156;2022-09-17T16:09:36;0.40;;;0.20;;
1625;SDS011;806;48.770;9.156;2022-09-17T16:12:10;0.90;;;0.30;;
1625;SDS011;806;48.770;9.156;2022-09-17T16:14:41;0.40;;;0.20;;
1625;SDS011;806;48.770;9.156;2022-09-17T16:17:28;0.40;;;0.27;;
1625;SDS011;806;48.770;9.156;2022-09-17T16:22:45;0.83;;;0.20;;
1625;SDS011;806;48.770;9.156;2022-09-17T16:25:13;0.77;;;0.30;;
1625;SDS011;806;48.770;9.156;2022-09-17T16:27:44;0.40;;;0.30;;
1625;SDS011;806;48.770;9.156;2022-09-17T16:30:14;0.40;;;0.20;;
1625;SDS011;806;48.770;9.156;2022-09-17T16:32:43;0.43;;;0.30;;
1625;SDS011;806;48.770;9.156;2022-09-17T16:35:10;0.57;;;0.23;;
1625;SDS011;806;48.770;9.156;2022-09-17T16:37:38;0.43;;;0.20;;
1625;SDS011;806;48.770;9.156;2022-09-17T16:40:07;0.50;;;0.20;;
1625;SDS011;806;48.770;9.156;2022-09-17T16:42:35;0.90;;;0.30;;
1625;SDS011;806;48.770;9.156;2022-09-17T16:45:03;0.40;;;0.20;;
1625;SDS011;806;48.770;9.156;2022-09-17T16:47:32;0.43;;;0.30;;